Terminal Aerodrome Forecast
Issued by NWS

Home | Current Version | Previous Version | Text Only | Print | Product List | Glossary On
Versions: 1 2 3 4 5 6 7 8 9 10 11 12 13 14 15
000
FTUS42 KMLB 111100
TAFFPR
TAF
KFPR 111140Z 1112/1212 00000KT P6SM SKC
     FM111300 11004KT P6SM FEW030 SCT250
     FM111600 10010KT P6SM SCT030 SCT100
     FM120300 11004KT P6SM SCT100 BKN250=

USA.gov is the U.S. government's official web portal to all federal, state and local government web resources and services.